createdAt,value
2019-02-27T00:00:32.905Z,99.99
2019-02-27T00:01:32.896Z,99.99
2019-02-27T00:02:32.874Z,99.99
2019-02-27T00:03:32.850Z,99.99
2019-02-27T00:04:37.326Z,99.99
2019-02-27T00:05:32.822Z,99.99
2019-02-27T00:06:32.799Z,99.99
2019-02-27T00:07:32.779Z,99.99
2019-02-27T00:08:32.760Z,99.99
2019-02-27T00:09:35.254Z,99.99
2019-02-27T00:10:32.724Z,99.99
2019-02-27T00:11:32.710Z,99.99
2019-02-27T00:12:32.694Z,99.99
2019-02-27T00:13:32.670Z,99.99
2019-02-27T00:14:34.119Z,99.99
2019-02-27T00:15:32.634Z,99.99
2019-02-27T00:16:32.655Z,99.99
2019-02-27T00:17:32.606Z,99.99
2019-02-27T00:18:32.582Z,99.99
2019-02-27T00:19:34.269Z,99.99
2019-02-27T00:20:36.588Z,99.99
2019-02-27T00:21:32.534Z,99.99
2019-02-27T00:22:32.517Z,99.99
2019-02-27T00:23:32.497Z,99.99
2019-02-27T00:24:33.014Z,99.99
2019-02-27T00:25:35.858Z,99.99
2019-02-27T00:26:32.448Z,99.99
2019-02-27T00:27:32.427Z,99.99
2019-02-27T00:28:32.408Z,99.99
2019-02-27T00:29:32.389Z,99.99
2019-02-27T00:30:32.375Z,99.99
2019-02-27T00:31:32.358Z,99.99
2019-02-27T00:32:32.336Z,99.99
2019-02-27T00:33:32.317Z,99.99
2019-02-27T00:34:35.470Z,99.99
2019-02-27T00:35:32.282Z,99.99
2019-02-27T00:36:32.030Z,99.99
2019-02-27T00:37:32.257Z,99.99
2019-02-27T00:38:32.230Z,99.99
2019-02-27T00:39:33.881Z,99.99
2019-02-27T00:40:31.945Z,99.99
2019-02-27T00:41:32.186Z,99.99
2019-02-27T00:42:36.144Z,99.99
2019-02-27T00:43:32.141Z,99.99
2019-02-27T00:44:36.456Z,99.99
2019-02-27T00:45:32.103Z,99.99
2019-02-27T00:46:32.088Z,99.99
2019-02-27T00:47:32.073Z,99.99
2019-02-27T00:48:32.051Z,99.99
2019-02-27T00:49:34.486Z,99.99
2019-02-27T00:50:32.019Z,99.99
2019-02-27T00:51:31.999Z,99.99
2019-02-27T00:52:32.063Z,99.99
2019-02-27T00:53:31.969Z,99.99
2019-02-27T00:54:34.383Z,99.99
2019-02-27T00:55:31.927Z,99.99
2019-02-27T00:56:31.909Z,99.99
2019-02-27T00:57:31.893Z,99.99
2019-02-27T00:58:31.874Z,99.99
2019-02-27T00:59:35.479Z,99.99
2019-02-27T01:00:31.841Z,99.99
2019-02-27T01:01:31.833Z,99.99
2019-02-27T01:02:31.803Z,99.99
2019-02-27T01:03:31.785Z,99.99
2019-02-27T01:04:34.915Z,99.99
2019-02-27T01:05:31.757Z,99.99
2019-02-27T01:06:31.732Z,99.99
2019-02-27T01:07:31.712Z,99.99
2019-02-27T01:08:31.700Z,99.99
2019-02-27T01:09:31.676Z,99.99
2019-02-27T01:10:31.659Z,99.99
2019-02-27T01:11:31.665Z,99.99
2019-02-27T01:12:31.623Z,99.99
2019-02-27T01:13:33.695Z,99.99
2019-02-27T01:14:31.605Z,99.99
2019-02-27T01:15:31.576Z,99.99
2019-02-27T01:16:31.553Z,99.99
2019-02-27T01:17:31.285Z,99.99
2019-02-27T01:18:33.730Z,99.99
2019-02-27T01:19:31.499Z,99.99
2019-02-27T01:20:31.477Z,99.99
2019-02-27T01:21:31.461Z,99.99
2019-02-27T01:22:31.444Z,99.99
2019-02-27T01:23:31.426Z,99.99
2019-02-27T01:24:31.163Z,99.99
2019-02-27T01:25:31.390Z,99.99
2019-02-27T01:26:33.892Z,99.99
2019-02-27T01:27:31.350Z,99.99
2019-02-27T01:28:31.332Z,99.99
2019-02-27T01:29:31.313Z,99.99
2019-02-27T01:30:31.299Z,99.99
2019-02-27T01:31:31.031Z,99.99
2019-02-27T01:32:33.635Z,99.99
2019-02-27T01:33:31.244Z,99.99
2019-02-27T01:34:31.230Z,99.99
2019-02-27T01:35:31.209Z,99.99
2019-02-27T01:36:31.192Z,99.99
2019-02-27T01:37:34.036Z,99.99
2019-02-27T01:38:31.154Z,99.99
2019-02-27T01:39:31.134Z,99.99
2019-02-27T01:40:31.118Z,99.99
2019-02-27T01:41:30.864Z,99.99
2019-02-27T01:42:34.611Z,99.99
2019-02-27T01:43:31.066Z,99.99
2019-02-27T01:44:31.044Z,99.99
2019-02-27T01:45:31.028Z,99.99
2019-02-27T01:46:30.776Z,99.99
2019-02-27T01:47:30.991Z,99.99
2019-02-27T01:48:30.974Z,99.99
2019-02-27T01:49:30.961Z,99.99
2019-02-27T01:50:31.089Z,99.99
2019-02-27T01:51:31.310Z,99.99
2019-02-27T01:52:33.909Z,99.99
2019-02-27T01:53:30.881Z,99.99
2019-02-27T01:54:30.864Z,99.99
2019-02-27T01:55:30.844Z,99.99
2019-02-27T01:56:31.985Z,99.99
2019-02-27T01:57:30.810Z,99.99
2019-02-27T01:58:30.795Z,99.99
2019-02-27T01:59:30.771Z,99.99
2019-02-27T02:00:30.759Z,99.99
2019-02-27T02:01:33.124Z,99.99
2019-02-27T02:02:30.718Z,99.99
2019-02-27T02:03:30.699Z,99.99
2019-02-27T02:04:30.680Z,99.99
2019-02-27T02:05:30.665Z,99.99
2019-02-27T02:06:34.705Z,99.99
2019-02-27T02:07:30.626Z,99.99
2019-02-27T02:08:30.608Z,99.99
2019-02-27T02:09:30.595Z,99.99
2019-02-27T02:10:31.269Z,99.99
2019-02-27T02:11:32.704Z,99.99
2019-02-27T02:12:30.537Z,99.99
2019-02-27T02:13:30.518Z,99.99
2019-02-27T02:14:30.252Z,99.99
2019-02-27T02:15:30.486Z,99.99
2019-02-27T02:16:34.078Z,99.99
2019-02-27T02:17:30.444Z,99.99
2019-02-27T02:18:30.433Z,99.99
2019-02-27T02:19:30.409Z,99.99
2019-02-27T02:20:30.153Z,99.99
2019-02-27T02:21:32.008Z,99.99
2019-02-27T02:22:30.355Z,99.99
2019-02-27T02:23:30.336Z,99.99
2019-02-27T02:24:30.318Z,99.99
2019-02-27T02:25:30.989Z,99.99
2019-02-27T02:26:32.096Z,99.99
2019-02-27T02:27:30.266Z,99.99
2019-02-27T02:28:30.264Z,99.99
2019-02-27T02:29:30.225Z,99.99
2019-02-27T02:30:32.863Z,99.99
2019-02-27T02:31:30.199Z,99.99
2019-02-27T02:32:30.171Z,99.99
2019-02-27T02:33:32.741Z,99.99
2019-02-27T02:34:29.888Z,99.99
2019-02-27T02:35:30.129Z,99.99
2019-02-27T02:36:29.850Z,99.99
2019-02-27T02:37:30.079Z,99.99
2019-02-27T02:38:30.061Z,99.99
2019-02-27T02:39:30.069Z,99.99
2019-02-27T02:40:33.377Z,99.99
2019-02-27T02:41:30.007Z,99.99
2019-02-27T02:42:29.985Z,99.99
2019-02-27T02:43:29.987Z,99.99
2019-02-27T02:44:29.710Z,99.99
2019-02-27T02:45:35.320Z,99.99
2019-02-27T02:46:29.921Z,99.99
2019-02-27T02:47:29.902Z,99.99
2019-02-27T02:48:33.259Z,99.99
2019-02-27T02:49:29.862Z,99.99
2019-02-27T02:50:29.860Z,99.99
2019-02-27T02:51:32.229Z,99.99
2019-02-27T02:52:29.807Z,99.99
2019-02-27T02:53:29.795Z,99.99
2019-02-27T02:54:36.149Z,99.99
2019-02-27T02:55:32.180Z,99.99
2019-02-27T02:56:29.730Z,99.99
2019-02-27T02:57:35.812Z,99.99
2019-02-27T02:58:29.698Z,99.99
2019-02-27T02:59:29.680Z,99.99
2019-02-27T03:00:29.661Z,99.99
2019-02-27T03:01:29.636Z,99.99
2019-02-27T03:02:32.165Z,99.99
2019-02-27T03:03:35.744Z,99.99
2019-02-27T03:04:29.591Z,99.99
2019-02-27T03:05:29.572Z,99.99
2019-02-27T03:06:34.365Z,99.99
2019-02-27T03:07:29.537Z,99.99
2019-02-27T03:08:29.511Z,99.99
2019-02-27T03:09:33.811Z,99.99
2019-02-27T03:10:29.480Z,99.99
2019-02-27T03:11:29.458Z,99.99
2019-02-27T03:12:33.539Z,99.99
2019-02-27T03:13:29.434Z,99.99
2019-02-27T03:14:29.399Z,99.99
2019-02-27T03:15:31.925Z,99.99
2019-02-27T03:16:29.122Z,99.99
2019-02-27T03:17:29.345Z,99.99
2019-02-27T03:18:32.733Z,99.99
2019-02-27T03:19:29.313Z,99.99
2019-02-27T03:20:29.295Z,99.99
2019-02-27T03:21:31.164Z,99.99
2019-02-27T03:22:29.260Z,99.99
2019-02-27T03:23:29.250Z,99.99
2019-02-27T03:24:31.301Z,99.99
2019-02-27T03:25:29.202Z,99.99
2019-02-27T03:26:29.181Z,99.99
2019-02-27T03:27:33.068Z,99.99
2019-02-27T03:28:29.144Z,99.99
2019-02-27T03:29:29.130Z,99.99
2019-02-27T03:30:36.989Z,99.99
2019-02-27T03:31:29.095Z,99.99
2019-02-27T03:32:28.843Z,99.99
2019-02-27T03:33:29.782Z,99.99
2019-02-27T03:34:28.794Z,99.99
2019-02-27T03:35:31.670Z,99.99
2019-02-27T03:36:29.081Z,99.99
2019-02-27T03:37:28.990Z,99.99
2019-02-27T03:38:28.968Z,99.99
2019-02-27T03:39:34.290Z,99.99
2019-02-27T03:40:28.928Z,99.99
2019-02-27T03:41:28.909Z,99.99
2019-02-27T03:42:30.778Z,99.99
2019-02-27T03:43:28.878Z,99.99
2019-02-27T03:44:28.870Z,99.99
2019-02-27T03:45:33.247Z,99.99
2019-02-27T03:46:28.813Z,99.99
2019-02-27T03:47:28.804Z,99.99
2019-02-27T03:48:30.725Z,99.99
2019-02-27T03:49:28.756Z,99.99
2019-02-27T03:50:28.495Z,99.99
2019-02-27T03:51:28.738Z,99.99
2019-02-27T03:52:28.710Z,99.99
2019-02-27T03:53:28.685Z,99.99
2019-02-27T03:54:28.433Z,99.99
2019-02-27T03:55:34.329Z,99.99
2019-02-27T03:56:28.640Z,99.99
2019-02-27T03:57:28.623Z,99.99
2019-02-27T03:58:32.603Z,99.99
2019-02-27T03:59:28.590Z,99.99
2019-02-27T04:00:28.573Z,99.99
2019-02-27T04:01:32.648Z,99.99
2019-02-27T04:02:28.522Z,99.99
2019-02-27T04:03:28.502Z,99.99
2019-02-27T04:04:32.346Z,99.99
2019-02-27T04:05:28.477Z,99.99
2019-02-27T04:06:28.459Z,99.99
2019-02-27T04:07:34.064Z,99.99
2019-02-27T04:08:28.408Z,99.99
2019-02-27T04:09:28.399Z,99.99
2019-02-27T04:10:33.536Z,99.99
2019-02-27T04:11:28.361Z,99.99
2019-02-27T04:12:28.342Z,99.99
2019-02-27T04:13:30.214Z,99.99
2019-02-27T04:14:28.309Z,99.99
2019-02-27T04:15:28.036Z,99.99
2019-02-27T04:16:32.575Z,99.99
2019-02-27T04:17:28.283Z,99.99
2019-02-27T04:18:30.864Z,99.99
2019-02-27T04:19:28.219Z,99.99
2019-02-27T04:20:28.190Z,99.99
2019-02-27T04:21:28.515Z,99.99
2019-02-27T04:22:28.160Z,99.99
2019-02-27T04:23:28.133Z,99.99
2019-02-27T04:24:28.112Z,99.99
2019-02-27T04:25:33.662Z,99.99
2019-02-27T04:26:27.829Z,99.99
2019-02-27T04:27:28.063Z,99.99
2019-02-27T04:28:32.099Z,99.99
2019-02-27T04:29:27.777Z,99.99
2019-02-27T04:30:28.008Z,99.99
2019-02-27T04:31:32.147Z,99.99
2019-02-27T04:32:27.964Z,99.99
2019-02-27T04:33:27.848Z,99.99
2019-02-27T04:34:27.929Z,99.99
2019-02-27T04:35:27.908Z,99.99
2019-02-27T04:36:27.892Z,99.99
2019-02-27T04:37:27.873Z,99.99
2019-02-27T04:38:30.479Z,99.99
2019-02-27T04:39:27.837Z,99.99
2019-02-27T04:40:27.817Z,99.99
2019-02-27T04:41:27.803Z,99.99
2019-02-27T04:42:28.841Z,99.99
2019-02-27T04:43:31.927Z,99.99
2019-02-27T04:44:27.493Z,99.99
2019-02-27T04:45:27.721Z,99.99
2019-02-27T04:46:27.702Z,99.99
2019-02-27T04:47:31.315Z,99.99
2019-02-27T04:48:32.158Z,99.99
2019-02-27T04:49:27.650Z,99.99
2019-02-27T04:50:27.383Z,99.99
2019-02-27T04:51:27.613Z,99.99
2019-02-27T04:52:27.591Z,99.99
2019-02-27T04:53:31.453Z,99.99
2019-02-27T04:54:27.555Z,99.99
2019-02-27T04:55:27.541Z,99.99
2019-02-27T04:56:27.526Z,99.99
2019-02-27T04:57:27.499Z,99.99
2019-02-27T04:58:27.481Z,99.99
2019-02-27T04:59:27.458Z,99.99
2019-02-27T05:00:29.180Z,99.99
2019-02-27T05:01:27.183Z,99.99
2019-02-27T05:02:27.157Z,99.99
2019-02-27T05:03:30.301Z,99.99
2019-02-27T05:04:27.380Z,99.99
2019-02-27T05:05:27.353Z,99.99
2019-02-27T05:06:27.331Z,99.99
2019-02-27T05:07:27.309Z,99.99
2019-02-27T05:08:29.836Z,99.99
2019-02-27T05:09:27.275Z,99.99
2019-02-27T05:10:27.258Z,99.99
2019-02-27T05:11:29.386Z,99.99
2019-02-27T05:12:27.223Z,99.99
2019-02-27T05:13:27.202Z,99.99
2019-02-27T05:14:30.410Z,99.99
2019-02-27T05:15:27.164Z,99.99
2019-02-27T05:16:27.148Z,99.99
2019-02-27T05:17:27.130Z,99.99
2019-02-27T05:18:31.761Z,99.99
2019-02-27T05:19:27.089Z,99.99
2019-02-27T05:20:27.072Z,99.99
2019-02-27T05:21:27.052Z,99.99
2019-02-27T05:22:29.390Z,99.99
2019-02-27T05:23:26.772Z,99.99
2019-02-27T05:24:26.996Z,99.99
2019-02-27T05:25:26.976Z,99.99
2019-02-27T05:26:29.639Z,99.99
2019-02-27T05:27:27.413Z,99.99
2019-02-27T05:28:26.919Z,99.99
2019-02-27T05:29:26.904Z,99.99
2019-02-27T05:30:26.885Z,99.99
2019-02-27T05:31:26.866Z,99.99
2019-02-27T05:32:30.455Z,99.99
2019-02-27T05:33:26.851Z,99.99
2019-02-27T05:34:26.834Z,99.99
2019-02-27T05:35:26.861Z,99.99
2019-02-27T05:36:28.942Z,99.99
2019-02-27T05:37:26.755Z,99.99
2019-02-27T05:38:26.737Z,99.99
2019-02-27T05:39:26.767Z,99.99
2019-02-27T05:40:28.432Z,99.99
2019-02-27T05:41:26.678Z,99.99
2019-02-27T05:42:26.660Z,99.99
2019-02-27T05:43:26.394Z,99.99
2019-02-27T05:44:26.374Z,99.99
2019-02-27T05:45:30.219Z,99.99
2019-02-27T05:46:26.583Z,99.99
2019-02-27T05:47:26.317Z,99.99
2019-02-27T05:48:26.550Z,99.99
2019-02-27T05:49:29.006Z,99.99
2019-02-27T05:50:26.511Z,99.99
2019-02-27T05:51:26.492Z,99.99
2019-02-27T05:52:26.476Z,99.99
2019-02-27T05:53:26.462Z,99.99
2019-02-27T05:54:26.445Z,99.99
2019-02-27T05:55:26.419Z,99.99
2019-02-27T05:56:26.400Z,99.99
2019-02-27T05:57:26.383Z,99.99
2019-02-27T05:58:26.369Z,99.99
2019-02-27T05:59:28.866Z,99.99
2019-02-27T06:00:26.338Z,99.99
2019-02-27T06:01:26.059Z,99.99
2019-02-27T06:02:27.971Z,99.99
2019-02-27T06:03:26.269Z,99.99
2019-02-27T06:04:27.763Z,99.99
2019-02-27T06:05:26.234Z,99.99
2019-02-27T06:06:26.217Z,99.99
2019-02-27T06:07:25.949Z,99.99
2019-02-27T06:08:26.179Z,99.99
2019-02-27T06:09:25.920Z,99.99
2019-02-27T06:10:26.222Z,99.99
2019-02-27T06:11:27.023Z,99.99
2019-02-27T06:12:26.104Z,99.99
2019-02-27T06:13:26.084Z,99.99
2019-02-27T06:14:26.068Z,99.99
2019-02-27T06:15:30.605Z,99.99
2019-02-27T06:16:26.032Z,99.99
2019-02-27T06:17:26.096Z,99.99
2019-02-27T06:18:26.208Z,99.99
2019-02-27T06:19:25.972Z,99.99
2019-02-27T06:20:25.953Z,99.99
2019-02-27T06:21:25.940Z,99.99
2019-02-27T06:22:27.208Z,99.99
2019-02-27T06:23:25.904Z,99.99
2019-02-27T06:24:25.879Z,99.99
2019-02-27T06:25:26.442Z,99.99
2019-02-27T06:26:25.598Z,99.99
2019-02-27T06:27:25.828Z,99.99
2019-02-27T06:28:25.807Z,99.99
2019-02-27T06:29:28.276Z,99.99
2019-02-27T06:30:27.888Z,99.99
2019-02-27T06:31:25.754Z,99.99
2019-02-27T06:32:25.734Z,99.99
2019-02-27T06:33:25.717Z,99.99
2019-02-27T06:34:27.270Z,99.99
2019-02-27T06:35:25.934Z,99.99
2019-02-27T06:36:25.680Z,99.99
2019-02-27T06:37:25.413Z,99.99
2019-02-27T06:38:28.261Z,99.99
2019-02-27T06:39:25.677Z,99.99
2019-02-27T06:40:25.676Z,99.99
2019-02-27T06:41:25.646Z,99.99
2019-02-27T06:42:25.589Z,99.99
2019-02-27T06:43:29.761Z,99.99
2019-02-27T06:44:25.648Z,99.99
2019-02-27T06:45:25.681Z,99.99
2019-02-27T06:46:25.415Z,99.99
2019-02-27T06:47:25.645Z,99.99
2019-02-27T06:48:25.687Z,99.99
2019-02-27T06:49:25.670Z,99.99
2019-02-27T06:50:28.414Z,99.99
2019-02-27T06:51:25.683Z,99.99
2019-02-27T06:52:25.665Z,99.99
2019-02-27T06:53:25.663Z,99.99
2019-02-27T06:54:25.705Z,99.99
2019-02-27T06:55:29.962Z,99.99
2019-02-27T06:56:25.648Z,99.99
2019-02-27T06:57:26.812Z,99.99
2019-02-27T06:58:25.673Z,99.99
2019-02-27T06:59:28.035Z,99.99
2019-02-27T07:00:25.697Z,99.99
2019-02-27T07:01:25.673Z,99.99
2019-02-27T07:02:25.651Z,99.99
2019-02-27T07:03:29.165Z,99.99
2019-02-27T07:04:26.851Z,99.99
2019-02-27T07:05:25.655Z,99.99
2019-02-27T07:06:25.695Z,99.99
2019-02-27T07:07:25.678Z,99.99
2019-02-27T07:08:25.659Z,99.99
2019-02-27T07:09:25.638Z,99.99
2019-02-27T07:10:25.631Z,99.99
2019-02-27T07:11:25.608Z,99.99
2019-02-27T07:12:25.587Z,99.99
2019-02-27T07:13:26.726Z,99.99
2019-02-27T07:14:25.551Z,99.99
2019-02-27T07:15:25.530Z,99.99
2019-02-27T07:16:26.150Z,99.99
2019-02-27T07:17:25.496Z,99.99
2019-02-27T07:18:25.478Z,99.99
2019-02-27T07:19:25.470Z,99.99
2019-02-27T07:20:27.566Z,99.99
2019-02-27T07:21:25.179Z,99.99
2019-02-27T07:22:25.409Z,99.99
2019-02-27T07:23:26.230Z,99.99
2019-02-27T07:24:25.370Z,99.99
2019-02-27T07:25:25.372Z,99.99
2019-02-27T07:26:25.338Z,99.99
2019-02-27T07:27:25.319Z,99.99
2019-02-27T07:28:25.302Z,99.99
2019-02-27T07:29:29.854Z,99.99
2019-02-27T07:30:26.296Z,99.99
2019-02-27T07:31:25.862Z,99.99
2019-02-27T07:32:25.254Z,99.99
2019-02-27T07:33:25.218Z,99.99
2019-02-27T07:34:24.955Z,99.99
2019-02-27T07:35:29.231Z,99.99
2019-02-27T07:36:25.164Z,99.99
2019-02-27T07:37:25.145Z,99.99
2019-02-27T07:38:25.610Z,99.99
2019-02-27T07:39:25.129Z,99.99
2019-02-27T07:40:25.093Z,99.99
2019-02-27T07:41:25.077Z,99.99
2019-02-27T07:42:25.058Z,99.99
2019-02-27T07:43:25.044Z,99.99
2019-02-27T07:44:25.025Z,99.99
2019-02-27T07:45:25.379Z,99.99
2019-02-27T07:46:25.437Z,99.99
2019-02-27T07:47:24.973Z,99.99
2019-02-27T07:48:25.058Z,99.99
2019-02-27T07:49:24.945Z,99.99
2019-02-27T07:50:24.924Z,99.99
2019-02-27T07:51:26.256Z,99.99
2019-02-27T07:52:24.893Z,99.99
2019-02-27T07:53:25.641Z,99.99
2019-02-27T07:54:28.755Z,99.99
2019-02-27T07:55:28.426Z,99.99
2019-02-27T07:56:24.824Z,99.99
2019-02-27T07:57:24.802Z,99.99
2019-02-27T07:58:24.786Z,99.99
2019-02-27T07:59:24.812Z,99.99
2019-02-27T08:00:26.287Z,99.99
2019-02-27T08:01:26.323Z,99.99
2019-02-27T08:02:24.721Z,99.99
2019-02-27T08:03:24.709Z,99.99
2019-02-27T08:04:25.414Z,99.99
2019-02-27T08:05:27.877Z,99.99
2019-02-27T08:06:26.116Z,99.99
2019-02-27T08:07:24.630Z,99.99
2019-02-27T08:08:26.642Z,99.99
2019-02-27T08:09:24.596Z,99.99
2019-02-27T08:10:24.579Z,99.99
2019-02-27T08:11:26.405Z,99.99
2019-02-27T08:12:24.559Z,99.99
2019-02-27T08:13:24.290Z,99.99
2019-02-27T08:14:24.515Z,99.99
2019-02-27T08:15:25.450Z,99.99
2019-02-27T08:16:25.524Z,99.99
2019-02-27T08:17:26.383Z,99.99
2019-02-27T08:18:36.523Z,99.99
2019-02-27T08:19:24.434Z,99.99
2019-02-27T08:20:24.423Z,99.99
2019-02-27T08:21:24.157Z,99.99
2019-02-27T08:22:26.439Z,99.99
2019-02-27T08:23:26.161Z,99.91
2019-02-27T08:24:25.748Z,98.44
2019-02-27T08:25:24.344Z,97.31
2019-02-27T08:26:24.326Z,95.5
2019-02-27T08:27:24.311Z,94.18
2019-02-27T08:28:24.299Z,92.85
2019-02-27T08:29:24.033Z,91.8
2019-02-27T08:30:24.275Z,90.86
2019-02-27T08:31:27.859Z,89.15
2019-02-27T08:32:24.243Z,88.1
2019-02-27T08:33:24.221Z,86.35
2019-02-27T08:34:24.204Z,84.59
2019-02-27T08:35:24.199Z,82.74
2019-02-27T08:36:23.934Z,81.7
2019-02-27T08:37:24.157Z,79.99
2019-02-27T08:38:26.079Z,79.04
2019-02-27T08:39:24.133Z,78.66
2019-02-27T08:40:26.598Z,77.81
2019-02-27T08:41:23.855Z,76.95
2019-02-27T08:42:24.089Z,76.39
2019-02-27T08:43:24.084Z,75.15
2019-02-27T08:44:24.058Z,74.58
2019-02-27T08:45:29.357Z,74.2
2019-02-27T08:46:24.027Z,74.05
2019-02-27T08:47:24.013Z,74.3
2019-02-27T08:48:24.003Z,73.63
2019-02-27T08:49:26.615Z,72.44
2019-02-27T08:50:23.971Z,71.77
2019-02-27T08:51:23.956Z,72.15
2019-02-27T08:52:23.942Z,71.77
2019-02-27T08:53:28.473Z,71.3
2019-02-27T08:54:23.914Z,70.44
2019-02-27T08:55:25.151Z,71.39
2019-02-27T08:56:23.884Z,72.25
2019-02-27T08:57:23.871Z,71.77
2019-02-27T08:58:23.861Z,71.86
2019-02-27T08:59:23.847Z,71.67
2019-02-27T09:00:25.622Z,71.58
2019-02-27T09:01:24.695Z,71.58
2019-02-27T09:02:24.233Z,71.58
2019-02-27T09:03:23.544Z,71.3
2019-02-27T09:04:23.773Z,70.82
2019-02-27T09:05:23.789Z,70.35
2019-02-27T09:06:27.235Z,70.63
2019-02-27T09:07:23.735Z,70
2019-02-27T09:08:23.719Z,70.1
2019-02-27T09:09:23.708Z,69.53
2019-02-27T09:10:26.297Z,69.34
2019-02-27T09:11:23.680Z,69.15
2019-02-27T09:12:23.667Z,68.29
2019-02-27T09:13:23.652Z,68.48
2019-02-27T09:14:23.637Z,68.58
2019-02-27T09:15:23.535Z,68.86
2019-02-27T09:16:28.287Z,69.56
2019-02-27T09:17:26.800Z,69.56
2019-02-27T09:18:25.398Z,69.09
2019-02-27T09:19:23.640Z,68.8
2019-02-27T09:20:23.568Z,69.37
2019-02-27T09:21:24.894Z,70.04
2019-02-27T09:22:23.540Z,70.26
2019-02-27T09:23:23.530Z,70.45
2019-02-27T09:24:23.510Z,70.74
2019-02-27T09:25:26.950Z,71.78
2019-02-27T09:26:24.277Z,72.45
2019-02-27T09:27:23.223Z,72.45
2019-02-27T09:28:23.455Z,72.07
2019-02-27T09:29:23.442Z,71.69
2019-02-27T09:30:28.666Z,71.63
2019-02-27T09:31:23.418Z,71.72
2019-02-27T09:32:23.404Z,72.58
2019-02-27T09:33:23.424Z,72.2
2019-02-27T09:34:26.573Z,72.58
2019-02-27T09:35:23.122Z,72.96
2019-02-27T09:36:23.354Z,73.34
2019-02-27T09:37:23.347Z,72.86
2019-02-27T09:38:26.591Z,72.71
2019-02-27T09:39:24.997Z,72.81
2019-02-27T09:40:23.307Z,72.81
2019-02-27T09:41:23.293Z,73.38
2019-02-27T09:42:23.281Z,73.47
2019-02-27T09:43:24.049Z,75.19
2019-02-27T09:44:23.257Z,74.62
2019-02-27T09:45:23.249Z,74.62
2019-02-27T09:46:22.991Z,74.9
2019-02-27T09:47:27.900Z,75.38
2019-02-27T09:48:23.212Z,76.23
2019-02-27T09:49:22.957Z,76.23
2019-02-27T09:50:23.187Z,75.95
2019-02-27T09:51:25.195Z,75.7
2019-02-27T09:52:23.726Z,75.89
2019-02-27T09:53:23.150Z,75.79
2019-02-27T09:54:23.141Z,76.65
2019-02-27T09:55:23.310Z,77.22
2019-02-27T09:56:23.119Z,78.56
2019-02-27T09:57:23.103Z,79.03
2019-02-27T09:58:25.122Z,74.56
2019-02-27T09:59:23.083Z,73.32
2019-02-27T10:00:25.796Z,71.8
2019-02-27T10:01:23.062Z,71.83
2019-02-27T10:02:23.049Z,71.83
2019-02-27T10:03:24.014Z,71.55
2019-02-27T10:04:23.027Z,73.26
2019-02-27T10:05:23.017Z,72.78
2019-02-27T10:06:23.008Z,71.73
2019-02-27T10:07:22.996Z,70.21
2019-02-27T10:08:25.181Z,68.4
2019-02-27T10:09:22.977Z,68.12
2019-02-27T10:10:22.971Z,68.5
2019-02-27T10:11:24.721Z,67.26
2019-02-27T10:12:26.834Z,68.3
2019-02-27T10:13:22.930Z,68.69
2019-02-27T10:14:22.919Z,67.2
2019-02-27T10:15:27.276Z,64.62
2019-02-27T10:16:22.899Z,64.15
2019-02-27T10:17:22.889Z,64.91
2019-02-27T10:18:24.555Z,64.62
2019-02-27T10:19:22.867Z,65
2019-02-27T10:20:22.623Z,64.81
2019-02-27T10:21:22.846Z,64.43
2019-02-27T10:22:24.620Z,64.56
2019-02-27T10:23:22.825Z,64.09
2019-02-27T10:24:22.567Z,62.94
2019-02-27T10:25:22.816Z,62.94
2019-02-27T10:26:25.061Z,62.94
2019-02-27T10:27:22.782Z,63.42
2019-02-27T10:28:22.772Z,63.04
2019-02-27T10:29:22.764Z,62.94
2019-02-27T10:30:22.761Z,63.8
2019-02-27T10:31:22.741Z,63.32
2019-02-27T10:32:22.734Z,62.18
2019-02-27T10:33:22.485Z,62.46
2019-02-27T10:34:22.712Z,62.56
2019-02-27T10:35:23.037Z,62.37
2019-02-27T10:36:22.693Z,62.27
2019-02-27T10:37:22.852Z,63.04
2019-02-27T10:38:22.680Z,62.3
2019-02-27T10:39:22.666Z,61.35
2019-02-27T10:40:22.658Z,60.78
2019-02-27T10:41:22.643Z,60.68
2019-02-27T10:42:22.633Z,60.49
2019-02-27T10:43:23.665Z,59.63
2019-02-27T10:44:22.615Z,59.63
2019-02-27T10:45:22.607Z,60.21
2019-02-27T10:46:26.111Z,59.92
2019-02-27T10:47:22.587Z,60.11
2019-02-27T10:48:22.578Z,60.3
2019-02-27T10:49:24.313Z,60.11
2019-02-27T10:50:22.561Z,60.02
2019-02-27T10:51:22.549Z,60.61
2019-02-27T10:52:26.764Z,58.51
2019-02-27T10:53:26.781Z,58.14
2019-02-27T10:54:22.521Z,58.2
2019-02-27T10:55:22.514Z,58.61
2019-02-27T10:56:26.472Z,57.46
2019-02-27T10:57:22.491Z,56.23
2019-02-27T10:58:24.489Z,56.8
2019-02-27T10:59:25.346Z,56.7
2019-02-27T11:00:24.811Z,57.85
2019-02-27T11:01:22.456Z,58.51
2019-02-27T11:02:23.497Z,58.99
2019-02-27T11:03:23.607Z,58.61
2019-02-27T11:04:22.430Z,58.7
2019-02-27T11:05:22.420Z,58.14
2019-02-27T11:06:22.409Z,58.9
2019-02-27T11:07:22.401Z,58.23
2019-02-27T11:08:22.396Z,57.56
2019-02-27T11:09:22.385Z,57.18
2019-02-27T11:10:24.176Z,56.89
2019-02-27T11:11:22.364Z,57.85
2019-02-27T11:12:22.354Z,57.56
2019-02-27T11:13:22.353Z,58.9
2019-02-27T11:14:22.348Z,57.56
2019-02-27T11:15:22.338Z,56.6
2019-02-27T11:16:24.333Z,56.8
2019-02-27T11:17:22.313Z,56.8
2019-02-27T11:18:22.301Z,56.99
2019-02-27T11:19:22.295Z,57.75
2019-02-27T11:20:24.730Z,58.23
2019-02-27T11:21:22.030Z,58.61
2019-02-27T11:22:22.267Z,59.38
2019-02-27T11:23:22.257Z,59.95
2019-02-27T11:24:22.253Z,58.23
2019-02-27T11:25:24.922Z,58.04
2019-02-27T11:26:22.236Z,58.16
2019-02-27T11:27:21.982Z,58.26
2019-02-27T11:28:22.222Z,58.36
2019-02-27T11:29:26.096Z,58.73
2019-02-27T11:30:22.201Z,58.16
2019-02-27T11:31:22.190Z,57.5
2019-02-27T11:32:25.500Z,55.58
2019-02-27T11:33:32.360Z,55.58
2019-02-27T11:34:22.163Z,55.49
2019-02-27T11:35:27.106Z,55.87
2019-02-27T11:36:22.143Z,55.3
2019-02-27T11:37:22.137Z,55.68
2019-02-27T11:38:26.994Z,55.87
2019-02-27T11:39:22.269Z,55.68
2019-02-27T11:40:22.112Z,56.45
2019-02-27T11:41:22.103Z,55.4
2019-02-27T11:42:22.093Z,54.63
2019-02-27T11:43:22.085Z,55.11
2019-02-27T11:44:21.830Z,54.06
2019-02-27T11:45:26.201Z,53.86
2019-02-27T11:46:22.061Z,54.72
2019-02-27T11:47:22.053Z,54.53
2019-02-27T11:48:24.874Z,54.06
2019-02-27T11:49:22.037Z,53.58
2019-02-27T11:50:22.026Z,53.86
2019-02-27T11:51:23.194Z,54.63
2019-02-27T11:52:22.013Z,54.94
2019-02-27T11:53:22.004Z,54.82
2019-02-27T11:54:21.993Z,54.75
2019-02-27T11:55:21.991Z,54.94
2019-02-27T11:56:23.212Z,54.85
2019-02-27T11:57:21.969Z,54.27
2019-02-27T11:58:21.962Z,54.37
2019-02-27T11:59:21.954Z,54.08
2019-02-27T12:00:23.589Z,54.37
2019-02-27T12:01:25.069Z,53.32
2019-02-27T12:02:28.703Z,53.51
2019-02-27T12:03:21.922Z,53.32
2019-02-27T12:04:22.462Z,53.32
2019-02-27T12:05:21.903Z,53.89
2019-02-27T12:06:21.649Z,53.41
2019-02-27T12:07:21.891Z,53.22
2019-02-27T12:08:22.335Z,53.03
2019-02-27T12:09:21.873Z,53.7
2019-02-27T12:10:21.864Z,54.25
2019-02-27T12:11:21.858Z,54.25
2019-02-27T12:12:25.074Z,53.7
2019-02-27T12:13:21.837Z,53.51
2019-02-27T12:14:21.833Z,52.94
2019-02-27T12:15:21.824Z,53.32
2019-02-27T12:16:21.815Z,53.8
2019-02-27T12:17:23.218Z,54.08
2019-02-27T12:18:23.570Z,54.56
2019-02-27T12:19:21.549Z,54.75
2019-02-27T12:20:21.788Z,54.37
2019-02-27T12:21:21.779Z,53.7
2019-02-27T12:22:21.770Z,54.75
2019-02-27T12:23:21.763Z,55.13
2019-02-27T12:24:22.037Z,56.38
2019-02-27T12:25:26.583Z,55.13
2019-02-27T12:26:21.755Z,52.94
2019-02-27T12:27:49.998Z,53.99
2019-02-27T12:28:21.721Z,53.8
2019-02-27T12:29:24.078Z,53.89
2019-02-27T12:30:21.702Z,53.99
2019-02-27T12:31:21.695Z,53.32
2019-02-27T12:32:24.305Z,53.13
2019-02-27T12:33:21.686Z,52.84
2019-02-27T12:34:21.672Z,53.22
2019-02-27T12:35:21.663Z,53.51
2019-02-27T12:36:21.872Z,53.99
2019-02-27T12:37:33.764Z,55.04
2019-02-27T12:38:21.644Z,54.85
2019-02-27T12:39:21.635Z,54.47
2019-02-27T12:40:26.502Z,53.61
2019-02-27T12:41:21.619Z,53.51
2019-02-27T12:42:21.611Z,53.7
2019-02-27T12:43:21.601Z,53.03
2019-02-27T12:44:21.595Z,51.89
2019-02-27T12:45:21.750Z,52.46
2019-02-27T12:46:21.590Z,52.84
2019-02-27T12:47:21.572Z,53.32
2019-02-27T12:48:21.564Z,53.8
2019-02-27T12:49:23.176Z,52.75
2019-02-27T12:50:21.545Z,52.46
2019-02-27T12:51:23.461Z,52.94
2019-02-27T12:52:22.732Z,52.84
2019-02-27T12:53:24.055Z,51.89
2019-02-27T12:54:21.514Z,51.98